National Weather Service United States Department of Commerce
Click Here for Latest Airport Weather Warnings
 
Latest Huntsville TAF


000
FTUS44 KHUN 260535
TAFHSV
TAF
KHSV 260535Z 2606/2706 19008KT P6SM FEW250 WS020/22037KT
FM261500 20012G21KT P6SM SCT250=

Latest Muscle Shoals TAF


000
FTUS44 KHUN 260535
TAFMSL
TAF
KMSL 260535Z 2606/2706 19009KT P6SM SKC WS020/22037KT
FM261500 22012G21KT P6SM SCT250=


Back to Main Huntsville Weather Forecast Office Page